createdAt,value
2022-10-11T00:02:14.088Z,9.30
2022-10-11T00:04:40.660Z,9.68
2022-10-11T00:07:07.199Z,9.38
2022-10-11T00:09:35.312Z,9.57
2022-10-11T00:12:01.925Z,9.20
2022-10-11T00:14:28.748Z,9.73
2022-10-11T00:16:55.343Z,9.52
2022-10-11T00:19:22.071Z,8.98
2022-10-11T00:21:48.615Z,8.98
2022-10-11T00:24:15.259Z,8.82
2022-10-11T00:26:46.852Z,8.67
2022-10-11T00:29:13.711Z,9.00
2022-10-11T00:31:40.475Z,8.15
2022-10-11T00:34:07.283Z,8.25
2022-10-11T00:36:33.864Z,8.80
2022-10-11T00:39:00.419Z,7.83
2022-10-11T00:41:26.968Z,8.93
2022-10-11T00:46:55.683Z,8.40
2022-10-11T00:49:30.310Z,8.75
2022-10-11T00:51:59.956Z,9.40
2022-10-11T00:54:29.728Z,8.77
2022-10-11T00:57:02.039Z,8.82
2022-10-11T00:59:34.643Z,9.77
2022-10-11T01:02:02.899Z,9.68
2022-10-11T01:04:29.420Z,9.18
2022-10-11T01:06:57.335Z,9.10
2022-10-11T01:09:24.740Z,9.00
2022-10-11T01:11:53.602Z,8.60
2022-10-11T01:14:41.440Z,8.15
2022-10-11T01:17:28.384Z,8.75
2022-10-11T01:20:22.192Z,9.33
2022-10-11T01:23:24.222Z,9.32
2022-10-11T01:26:08.224Z,8.82
2022-10-11T01:28:42.168Z,8.98
2022-10-11T01:31:17.905Z,9.10
2022-10-11T01:33:50.540Z,8.60
2022-10-11T01:36:22.998Z,8.60
2022-10-11T01:38:53.253Z,8.93
2022-10-11T01:41:24.547Z,9.35
2022-10-11T01:43:57.547Z,8.70
2022-10-11T01:46:26.180Z,8.03
2022-10-11T01:48:54.541Z,8.43
2022-10-11T01:51:30.071Z,8.07
2022-10-11T01:54:18.720Z,8.32
2022-10-11T01:56:59.772Z,7.97
2022-10-11T01:59:39.523Z,8.03
2022-10-11T02:02:22.315Z,8.65
2022-10-11T02:04:52.999Z,9.40
2022-10-11T02:07:23.029Z,8.77
2022-10-11T02:09:55.819Z,9.35
2022-10-11T02:12:28.264Z,9.23
2022-10-11T02:14:57.544Z,9.25
2022-10-11T02:17:31.659Z,10.32
2022-10-11T02:20:01.052Z,9.02
2022-10-11T02:22:32.025Z,10.02
2022-10-11T02:25:01.592Z,9.13
2022-10-11T02:27:33.077Z,9.93
2022-10-11T02:30:01.651Z,9.38
2022-10-11T02:32:32.956Z,9.55
2022-10-11T02:35:01.987Z,8.70
2022-10-11T02:37:32.830Z,9.03
2022-10-11T02:40:06.505Z,8.93
2022-10-11T02:42:37.031Z,9.60
2022-10-11T02:45:08.815Z,9.25
2022-10-11T02:47:37.219Z,9.77
2022-10-11T02:50:04.711Z,8.77
2022-10-11T02:52:31.343Z,8.55
2022-10-11T02:54:57.851Z,8.35
2022-10-11T02:57:28.045Z,7.82
2022-10-11T02:59:54.638Z,8.15
2022-10-11T03:02:21.272Z,8.07
2022-10-11T03:04:49.301Z,8.32
2022-10-11T03:07:15.814Z,8.77
2022-10-11T03:09:42.485Z,8.23
2022-10-11T03:12:09.051Z,8.40
2022-10-11T03:14:35.587Z,8.10
2022-10-11T03:17:23.742Z,8.10
2022-10-11T03:19:50.017Z,8.00
2022-10-11T03:22:16.579Z,7.40
2022-10-11T03:24:43.095Z,7.50
2022-10-11T03:27:09.649Z,7.50
2022-10-11T03:29:36.279Z,7.78
2022-10-11T03:32:03.291Z,7.32
2022-10-11T03:34:29.867Z,8.27
2022-10-11T03:36:57.784Z,7.88
2022-10-11T03:39:24.306Z,8.90
2022-10-11T03:41:50.886Z,8.05
2022-10-11T03:44:17.451Z,8.15
2022-10-11T03:46:44.002Z,8.20
2022-10-11T03:49:10.615Z,8.45
2022-10-11T03:51:37.126Z,9.30
2022-10-11T03:54:05.185Z,8.18
2022-10-11T03:56:32.380Z,8.75
2022-10-11T03:58:58.960Z,8.93
2022-10-11T04:01:25.530Z,9.35
2022-10-11T04:03:55.195Z,9.10
2022-10-11T04:06:22.595Z,8.60
2022-10-11T04:08:49.128Z,8.20
2022-10-11T04:11:17.055Z,9.05
2022-10-11T04:13:43.568Z,8.35
2022-10-11T04:16:10.099Z,7.93
2022-10-11T04:18:36.691Z,9.00
2022-10-11T04:21:03.431Z,8.35
2022-10-11T04:23:30.663Z,8.23
2022-10-11T04:25:57.204Z,8.48
2022-10-11T04:28:25.202Z,7.90
2022-10-11T04:30:51.872Z,8.02
2022-10-11T04:33:18.543Z,7.95
2022-10-11T04:35:45.090Z,7.82
2022-10-11T04:38:11.704Z,7.32
2022-10-11T04:40:38.248Z,7.20
2022-10-11T04:43:04.862Z,7.00
2022-10-11T04:45:32.716Z,7.88
2022-10-11T04:47:59.232Z,7.95
2022-10-11T04:50:25.755Z,6.88
2022-10-11T04:52:52.274Z,7.05
2022-10-11T04:55:18.807Z,7.55
2022-10-11T04:57:45.342Z,7.55
2022-10-11T05:00:12.844Z,7.38
2022-10-11T05:02:40.744Z,6.97
2022-10-11T05:05:08.266Z,8.10
2022-10-11T05:07:34.861Z,6.95
2022-10-11T05:10:01.448Z,7.65
2022-10-11T05:12:28.159Z,7.50
2022-10-11T05:14:54.784Z,7.03
2022-10-11T05:17:21.327Z,8.00
2022-10-11T05:19:49.196Z,8.40
2022-10-11T05:22:15.739Z,8.10
2022-10-11T05:24:42.329Z,8.52
2022-10-11T05:27:08.897Z,8.35
2022-10-11T05:29:35.419Z,8.57
2022-10-11T05:32:01.912Z,8.07
2022-10-11T05:34:35.544Z,7.82
2022-10-11T05:37:03.395Z,7.18
2022-10-11T05:39:30.108Z,7.70
2022-10-11T05:41:56.646Z,6.23
2022-10-11T05:44:23.293Z,6.78
2022-10-11T05:46:49.871Z,6.68
2022-10-11T05:49:17.095Z,6.07
2022-10-11T05:51:43.602Z,6.05
2022-10-11T05:54:11.453Z,6.83
2022-10-11T05:56:37.999Z,6.15
2022-10-11T05:59:04.855Z,7.47
2022-10-11T06:01:31.676Z,6.78
2022-10-11T06:03:58.271Z,6.07
2022-10-11T06:06:24.861Z,6.67
2022-10-11T08:08:53.246Z,3.55
2022-10-11T08:11:21.903Z,3.15
2022-10-11T08:13:48.484Z,3.60
2022-10-11T08:16:15.327Z,3.13
2022-10-11T08:18:42.159Z,3.22
2022-10-11T08:21:09.022Z,3.00
2022-10-11T08:23:42.327Z,3.20
2022-10-11T08:26:10.642Z,3.40
2022-10-11T08:28:37.736Z,3.30
2022-10-11T08:31:04.903Z,3.17
2022-10-11T08:33:31.468Z,3.38
2022-10-11T08:35:58.334Z,3.60
2022-10-11T08:38:24.982Z,3.20
2022-10-11T08:40:54.229Z,3.20
2022-10-11T08:43:40.046Z,3.20
2022-10-11T08:46:09.198Z,3.47
2022-10-11T08:48:38.404Z,3.42
2022-10-11T08:51:13.486Z,3.20
2022-10-11T08:53:46.369Z,2.97
2022-10-11T08:56:14.958Z,3.75
2022-10-11T08:58:49.245Z,3.20
2022-10-11T09:01:20.454Z,3.15
2022-10-11T09:03:47.877Z,3.33
2022-10-11T09:06:31.581Z,3.60
2022-10-11T09:09:10.225Z,3.00
2022-10-11T09:11:51.672Z,3.88
2022-10-11T09:14:47.760Z,3.20
2022-10-11T09:17:26.272Z,3.50
2022-10-11T09:20:30.414Z,3.90
2022-10-11T09:23:02.766Z,3.63
2022-10-11T09:25:33.411Z,3.80
2022-10-11T09:28:10.598Z,3.58
2022-10-11T09:30:45.893Z,4.13
2022-10-11T09:33:18.357Z,3.65
2022-10-11T09:35:47.344Z,3.90
2022-10-11T09:38:24.493Z,3.88
2022-10-11T09:41:04.748Z,3.67
2022-10-11T09:43:31.653Z,3.37
2022-10-11T09:45:59.706Z,3.80
2022-10-11T09:48:33.003Z,3.40
2022-10-11T09:51:12.001Z,3.67
2022-10-11T09:53:50.607Z,3.90
2022-10-11T09:56:17.262Z,3.97
2022-10-11T09:58:43.777Z,3.60
2022-10-11T10:01:13.011Z,4.25
2022-10-11T10:03:42.017Z,3.78
2022-10-11T10:06:12.702Z,3.80
2022-10-11T10:08:39.256Z,3.87
2022-10-11T10:11:07.648Z,3.85
2022-10-11T10:13:42.968Z,4.32
2022-10-11T10:16:23.424Z,3.85
2022-10-11T10:18:53.103Z,3.50
2022-10-11T10:21:27.019Z,3.07
2022-10-11T10:23:55.314Z,3.25
2022-10-11T10:26:23.984Z,2.80
2022-10-11T10:29:04.296Z,2.88
2022-10-11T10:31:49.419Z,2.80
2022-10-11T10:34:27.498Z,3.20
2022-10-11T10:36:57.981Z,3.13
2022-10-11T10:39:40.306Z,2.75
2022-10-11T10:42:14.966Z,3.00
2022-10-11T10:44:42.405Z,2.85
2022-10-11T10:47:22.430Z,3.33
2022-10-11T10:49:57.466Z,3.00
2022-10-11T10:52:48.042Z,3.10
2022-10-11T10:55:23.270Z,2.90
2022-10-11T10:58:07.099Z,2.30
2022-10-11T11:00:41.849Z,3.07
2022-10-11T11:03:15.940Z,2.95
2022-10-11T11:05:47.102Z,2.90
2022-10-11T11:08:21.963Z,2.50
2022-10-11T11:10:55.473Z,2.53
2022-10-11T11:13:30.082Z,3.30
2022-10-11T11:16:13.424Z,3.40
2022-10-11T11:18:52.709Z,2.80
2022-10-11T11:21:36.786Z,2.80
2022-10-11T11:24:36.695Z,2.50
2022-10-11T11:27:13.227Z,3.20
2022-10-11T11:29:53.202Z,3.30
2022-10-11T11:32:34.313Z,2.80
2022-10-11T11:35:08.214Z,2.92
2022-10-11T11:37:38.660Z,2.92
2022-10-11T11:40:14.065Z,2.50
2022-10-11T11:42:44.952Z,2.92
2022-10-11T11:45:18.313Z,2.50
2022-10-11T11:47:50.503Z,2.88
2022-10-11T11:50:20.141Z,2.35
2022-10-11T11:52:50.420Z,2.30
2022-10-11T11:55:21.804Z,2.47
2022-10-11T11:57:57.729Z,2.33
2022-10-11T12:00:30.744Z,2.17
2022-10-11T12:03:00.249Z,2.53
2022-10-11T12:05:31.019Z,2.53
2022-10-11T12:08:00.785Z,2.65
2022-10-11T12:10:35.116Z,2.13
2022-10-11T12:13:08.222Z,2.60
2022-10-11T12:15:35.592Z,2.42
2022-10-11T12:18:14.127Z,2.83
2022-10-11T12:20:48.344Z,2.53
2022-10-11T12:23:42.581Z,2.55
2022-10-11T12:26:47.778Z,2.72
2022-10-11T12:29:34.059Z,2.42
2022-10-11T12:32:48.387Z,1.97
2022-10-11T12:35:51.052Z,2.30
2022-10-11T12:38:21.306Z,2.60
2022-10-11T12:40:49.712Z,2.25
2022-10-11T12:43:34.122Z,2.70
2022-10-11T12:46:44.311Z,2.47
2022-10-11T12:49:36.706Z,2.03
2022-10-11T12:52:22.971Z,1.85
2022-10-11T12:55:05.159Z,2.55
2022-10-11T12:58:02.645Z,2.63
2022-10-11T13:00:32.118Z,2.40
2022-10-11T13:03:00.762Z,2.22
2022-10-11T13:05:32.115Z,2.20
2022-10-11T13:08:03.833Z,2.40
2022-10-11T13:10:38.026Z,2.47
2022-10-11T13:13:09.692Z,2.00
2022-10-11T13:15:37.404Z,2.50
2022-10-11T13:18:04.119Z,2.15
2022-10-11T13:20:35.251Z,2.50
2022-10-11T13:23:20.388Z,2.45
2022-10-11T13:25:47.067Z,2.33
2022-10-11T13:28:15.282Z,2.40
2022-10-11T13:30:47.368Z,2.03
2022-10-11T13:33:19.860Z,2.22
2022-10-11T13:35:47.980Z,2.47
2022-10-11T13:38:21.504Z,2.23
2022-10-11T13:40:51.193Z,2.40
2022-10-11T13:43:22.981Z,2.40
2022-10-11T13:45:53.741Z,2.08
2022-10-11T13:48:20.705Z,2.10
2022-10-11T13:51:05.570Z,2.00
2022-10-11T13:53:33.726Z,1.90
2022-10-11T13:56:02.330Z,2.03
2022-10-11T13:58:33.082Z,1.70
2022-10-11T14:01:02.126Z,2.15
2022-10-11T14:03:38.252Z,2.33
2022-10-11T14:06:05.616Z,2.13
2022-10-11T14:08:36.975Z,2.30
2022-10-11T14:11:06.594Z,1.75
2022-10-11T14:13:39.623Z,2.30
2022-10-11T14:16:09.201Z,1.73
2022-10-11T14:18:43.517Z,2.15
2022-10-11T14:21:32.266Z,2.25
2022-10-11T14:24:09.307Z,1.75
2022-10-11T14:26:37.733Z,2.00
2022-10-11T14:29:07.953Z,2.20
2022-10-11T14:31:39.187Z,2.10
2022-10-11T14:34:17.614Z,1.80
2022-10-11T14:36:44.249Z,1.98
2022-10-11T14:39:15.508Z,2.03
2022-10-11T14:41:42.442Z,1.60
2022-10-11T14:44:09.019Z,1.98
2022-10-11T14:46:35.614Z,2.38
2022-10-11T14:49:02.180Z,1.90
2022-10-11T14:51:35.480Z,1.63
2022-10-11T14:54:02.302Z,2.20
2022-10-11T14:56:30.264Z,1.67
2022-10-11T14:58:56.829Z,1.58
2022-10-11T15:01:26.134Z,1.40
2022-10-11T15:03:52.726Z,1.58
2022-10-11T15:06:21.427Z,2.00
2022-10-11T15:08:48.318Z,2.42
2022-10-11T15:11:16.897Z,2.15
2022-10-11T15:13:45.730Z,2.00
2022-10-11T15:16:13.251Z,2.35
2022-10-11T15:18:39.866Z,2.00
2022-10-11T15:21:06.973Z,2.38
2022-10-11T15:23:33.691Z,2.80
2022-10-11T15:26:00.285Z,2.13
2022-10-11T15:28:28.384Z,2.28
2022-10-11T15:30:56.361Z,2.43
2022-10-11T15:33:30.324Z,2.30
2022-10-11T15:35:56.900Z,2.72
2022-10-11T15:38:25.160Z,2.20
2022-10-11T15:40:52.457Z,2.28
2022-10-11T15:43:24.242Z,1.93
2022-10-11T15:45:51.604Z,2.38
2022-10-11T15:48:21.615Z,2.78
2022-10-11T15:50:49.654Z,2.85
2022-10-11T15:53:18.062Z,2.90
2022-10-11T15:55:46.206Z,3.20
2022-10-11T15:58:14.064Z,3.10
2022-10-11T16:00:40.642Z,2.90
2022-10-11T16:03:07.188Z,2.60
2022-10-11T16:08:29.542Z,3.07
2022-10-11T16:10:56.478Z,3.13
2022-10-11T16:13:23.141Z,3.30
2022-10-11T16:15:49.661Z,2.88
2022-10-11T16:18:19.010Z,2.97
2022-10-11T16:20:49.729Z,2.90
2022-10-11T16:23:16.677Z,3.00
2022-10-11T16:25:43.389Z,3.15
2022-10-11T16:28:10.322Z,3.10
2022-10-11T16:30:38.884Z,2.83
2022-10-11T16:33:05.520Z,3.13
2022-10-11T16:35:32.800Z,2.70
2022-10-11T16:38:00.968Z,3.47
2022-10-11T16:40:27.755Z,3.55
2022-10-11T16:42:54.312Z,2.85
2022-10-11T16:45:21.003Z,3.47
2022-10-11T16:47:47.570Z,3.70
2022-10-11T16:50:14.170Z,3.63
2022-10-11T16:52:40.757Z,3.50
2022-10-11T16:55:09.312Z,4.32
2022-10-11T16:57:36.242Z,3.28
2022-10-11T17:00:04.520Z,3.70
2022-10-11T17:02:32.711Z,3.88
2022-10-11T17:04:59.522Z,3.65
2022-10-11T17:07:26.559Z,4.20
2022-10-11T17:09:53.177Z,3.17
2022-10-11T17:12:23.246Z,3.50
2022-10-11T17:14:50.573Z,3.92
2022-10-11T17:17:20.363Z,4.43
2022-10-11T17:19:47.184Z,3.85
2022-10-11T17:22:16.556Z,4.18
2022-10-11T17:24:43.434Z,5.20
2022-10-11T17:27:10.206Z,4.57
2022-10-11T17:29:38.355Z,5.03
2022-10-11T17:32:05.531Z,4.68
2022-10-11T17:34:32.115Z,5.22
2022-10-11T17:36:59.167Z,4.85
2022-10-11T17:39:26.041Z,6.25
2022-10-11T17:41:53.952Z,5.63
2022-10-11T17:44:20.888Z,5.70
2022-10-11T17:46:48.979Z,5.50
2022-10-11T17:49:16.065Z,5.35
2022-10-11T17:51:43.138Z,5.65
2022-10-11T17:54:09.853Z,5.55
2022-10-11T17:56:38.177Z,5.78
2022-10-11T17:59:05.492Z,5.13
2022-10-11T18:01:32.180Z,4.75
2022-10-11T18:04:02.886Z,4.63
2022-10-11T18:06:31.681Z,4.70
2022-10-11T18:09:00.873Z,4.50
2022-10-11T18:11:27.758Z,4.55
2022-10-11T18:13:54.529Z,4.57
2022-10-11T18:16:23.635Z,5.00
2022-10-11T18:18:50.652Z,4.63
2022-10-11T18:21:18.789Z,4.80
2022-10-11T18:23:45.844Z,4.63
2022-10-11T18:26:14.862Z,13.43
2022-10-11T18:28:41.958Z,8.25
2022-10-11T18:31:13.493Z,7.03
2022-10-11T18:33:40.836Z,6.47
2022-10-11T18:36:08.877Z,6.68
2022-10-11T18:38:37.036Z,6.82
2022-10-11T18:41:05.531Z,7.70
2022-10-11T18:43:32.597Z,6.82
2022-10-11T18:46:03.844Z,8.63
2022-10-11T18:48:30.687Z,7.67
2022-10-11T18:51:02.262Z,8.05
2022-10-11T18:53:29.066Z,6.80
2022-10-11T18:55:59.595Z,7.28
2022-10-11T18:58:26.465Z,7.47
2022-10-11T19:00:53.463Z,7.43
2022-10-11T19:03:20.381Z,7.25
2022-10-11T19:05:47.180Z,7.15
2022-10-11T19:08:13.965Z,6.30
2022-10-11T19:10:40.647Z,6.18
2022-10-11T19:13:08.707Z,7.13
2022-10-11T19:15:36.101Z,6.45
2022-10-11T19:18:02.772Z,6.53
2022-10-11T19:20:29.416Z,7.13
2022-10-11T19:22:56.516Z,7.05
2022-10-11T19:28:18.942Z,6.78
2022-10-11T19:30:45.676Z,6.63
2022-10-11T19:33:12.272Z,7.03
2022-10-11T19:35:38.934Z,7.15
2022-10-11T19:38:05.656Z,7.32
2022-10-11T19:40:33.789Z,8.23
2022-10-11T19:43:00.480Z,7.78
2022-10-11T19:45:28.504Z,7.00
2022-10-11T19:47:55.183Z,7.50
2022-10-11T19:50:21.880Z,7.60
2022-10-11T19:52:48.512Z,7.63
2022-10-11T19:55:15.334Z,7.97
2022-10-11T19:57:42.063Z,8.85
2022-10-11T20:00:10.016Z,8.32
2022-10-11T20:02:44.284Z,8.02
2022-10-11T20:05:10.924Z,8.50
2022-10-11T20:07:37.635Z,7.50
2022-10-11T20:10:05.142Z,8.05
2022-10-11T20:12:33.284Z,7.95
2022-10-11T20:15:00.127Z,7.38
2022-10-11T20:17:28.123Z,7.90
2022-10-11T20:19:56.284Z,6.95
2022-10-11T20:22:23.010Z,6.85
2022-10-11T20:24:49.548Z,7.30
2022-10-11T20:27:16.227Z,7.50
2022-10-11T20:29:42.881Z,8.70
2022-10-11T20:32:09.656Z,7.93
2022-10-11T20:34:36.302Z,7.28
2022-10-11T20:37:04.279Z,7.70
2022-10-11T20:39:30.932Z,7.75
2022-10-11T20:41:57.615Z,7.63
2022-10-11T20:44:24.323Z,7.47
2022-10-11T20:46:51.104Z,7.60
2022-10-11T20:49:17.738Z,7.40
2022-10-11T20:51:44.495Z,7.75
2022-10-11T20:54:12.571Z,7.70
2022-10-11T20:56:39.737Z,7.30
2022-10-11T20:59:06.917Z,7.55
2022-10-11T21:01:36.338Z,7.80
2022-10-11T21:04:04.230Z,8.15
2022-10-11T21:06:32.188Z,7.85
2022-10-11T21:08:59.809Z,7.18
2022-10-11T21:11:29.262Z,7.45
2022-10-11T21:13:56.466Z,7.07
2022-10-11T21:16:23.556Z,6.43
2022-10-11T21:18:51.428Z,6.72
2022-10-11T21:21:18.643Z,7.53
2022-10-11T21:23:45.511Z,7.00
2022-10-11T21:26:13.928Z,7.53
2022-10-11T21:28:42.052Z,7.63
2022-10-11T21:31:10.570Z,7.10
2022-10-11T21:33:38.103Z,7.57
2022-10-11T21:36:05.530Z,7.03
2022-10-11T21:38:32.973Z,7.10
2022-10-11T21:41:02.132Z,7.20
2022-10-11T21:43:28.888Z,7.03
2022-10-11T21:45:57.013Z,6.95
2022-10-11T21:48:23.819Z,8.27
2022-10-11T21:50:53.066Z,6.65
2022-10-11T21:53:19.851Z,7.18
2022-10-11T21:55:46.447Z,6.85
2022-10-11T21:58:13.195Z,6.30
2022-10-11T22:00:39.997Z,6.30
2022-10-11T22:03:08.127Z,6.97
2022-10-11T22:05:34.904Z,5.85
2022-10-11T22:08:01.644Z,5.78
2022-10-11T22:10:28.325Z,6.07
2022-10-11T22:12:54.908Z,5.32
2022-10-11T22:15:21.612Z,5.85
2022-10-11T22:17:48.242Z,6.05
2022-10-11T22:20:16.523Z,5.78
2022-10-11T22:22:43.131Z,5.47
2022-10-11T22:25:09.703Z,5.60
2022-10-11T22:27:38.342Z,5.32
2022-10-11T22:30:05.819Z,5.10
2022-10-11T22:32:32.539Z,4.78
2022-10-11T22:34:59.269Z,6.10
2022-10-11T22:37:27.256Z,5.25
2022-10-11T22:39:53.780Z,5.07
2022-10-11T22:42:25.469Z,5.00
2022-10-11T22:44:54.205Z,5.15
2022-10-11T22:47:20.781Z,4.90
2022-10-11T22:49:47.357Z,5.03
2022-10-11T22:52:13.937Z,5.72
2022-10-11T22:54:41.940Z,4.30
2022-10-11T22:57:08.571Z,4.43
2022-10-11T22:59:35.182Z,4.30
2022-10-11T23:02:01.698Z,4.88
2022-10-11T23:04:28.290Z,4.72
2022-10-11T23:06:54.839Z,4.72
2022-10-11T23:09:21.508Z,4.85
2022-10-11T23:11:49.503Z,4.60
2022-10-11T23:14:16.186Z,4.53
2022-10-11T23:16:42.722Z,4.70
2022-10-11T23:19:09.415Z,4.90
2022-10-11T23:21:35.946Z,4.60
2022-10-11T23:24:02.637Z,5.30
2022-10-11T23:26:29.347Z,5.00
2022-10-11T23:28:57.448Z,4.60
2022-10-11T23:31:24.170Z,4.65
2022-10-11T23:33:50.944Z,4.30
2022-10-11T23:36:19.214Z,4.57
2022-10-11T23:38:50.191Z,5.10
2022-10-11T23:41:16.794Z,5.15
2022-10-11T23:43:43.345Z,4.57
2022-10-11T23:46:11.356Z,4.13
2022-10-11T23:48:37.986Z,4.43
2022-10-11T23:51:04.813Z,4.20
2022-10-11T23:53:31.565Z,4.78
2022-10-11T23:55:58.208Z,4.82
2022-10-11T23:58:25.110Z,4.82
